Aérodrome :
LOGIN :

S'inscrire | Disclaimer

   EN    FR    IT 

 










Légende :    VFR   VFR Marginal   IFR   IFR Intensif   IFR Très Intensif
Visi : 
Plafond : 
>= 8 km
>= 3000ft
5 à 8 km
1000 à 3000 ft
1500m à 5 km
500 à 1000 ft
800 à 1500m
200 à 500 ft
< 800m
< 200 ft
Symboles :   Orages  Brouillard  Fortes neiges  Fortes précipitations  Vent > 20 kt
SIGMETs :   Divers  Orages  Givrage  Turbulence  Onde Orograph.  Cendres Volcan.







- Altitude de l'aérodrome : 1460 ft


LSMA - Alpnach

DERNIER METAR :
  • 192150Z AUTO 05003KT 010V100 9999NDV FEW017 OVC023 02/M01 Q1004 RMK

METARs EXPIRÉS :
  • 192120Z AUTO 08004KT 050V110 9999NDV FEW016 SCT019 OVC023 02/M02 Q1004 RMK
  • 192050Z AUTO 06005KT 360V080 9999NDV FEW020 OVC024 02/M02 Q1004 RMK
  • 192020Z AUTO 05004KT 010V100 9999NDV OVC023 02/M02 Q1004 RMK
  • 191950Z AUTO 08005KT 030V100 9999NDV FEW022 OVC025 02/M02 Q1004 RMK
  • 191920Z AUTO 07007KT 040V100 9999NDV SCT020 OVC026 02/M02 Q1004 RMK

Prévision TAF périmée.
Pas de NOTAMs connus pour ce terrain.



MET'MAP, la Météo Aéronautique d'un coup d'oeil ! - Copyright ORBIFLY Décembre 2007 - Disclaimer

ORBIFLY MET'MAP TEAM :

Programmation & Développement : Alexandra Zaïnal
Conception & Développement : Baudouin d'Aumeries
Co-Programmation & Développement : Marc-Olivier Méhu
Soutien technique & logistique : Manuel Goepfert

Contact : metmap@orbifly.com




SOURCES & CREDITS :

   NOAA